Time;durP1;ratioP1;P1;durP2;ratioP2;P2;SDS_P1;SDS_P2;PMS_P1;PMS_P2;Temp;Humidity;BMP_temperature;BMP_pressure;BME280_temperature;BME280_humidity;BME280_pressure;Samples;Min_cycle;Max_cycle;Signal;HPM_P1;HPM_P2
2023/04/23 00:00:51;;;;;;;33.95;30.27;;;;;;;9.42;100.00;100322.44;5047114;28;20083;-74
2023/04/23 00:03:18;;;;;;;39.00;31.77;;;;;;;8.92;100.00;100226.28;5046768;28;20033;-73
2023/04/23 00:05:44;;;;;;;36.63;30.67;;;;;;;8.61;100.00;100206.97;5037729;28;20726;-73
2023/04/23 00:08:10;;;;;;;37.13;27.80;;;;;;;9.46;100.00;100332.06;5043302;28;20061;-73
2023/04/23 00:10:36;;;;;;;38.70;30.90;;;;;;;8.32;100.00;100095.25;5042680;28;20107;-72
2023/04/23 00:13:03;;;;;;;43.92;30.75;;;;;;;9.54;100.00;100312.88;5044044;28;20130;-72
2023/04/23 00:15:28;;;;;;;39.42;31.15;;;;;;;9.57;100.00;100305.00;5047724;28;20028;-74
2023/04/23 00:17:54;;;;;;;41.60;29.73;;;;;;;9.47;100.00;100286.66;5046367;28;20047;-73
2023/04/23 00:20:20;;;;;;;43.85;33.22;;;;;;;9.43;100.00;100289.25;5047741;28;20036;-73
2023/04/23 00:22:46;;;;;;;39.20;32.05;;;;;;;8.63;100.00;100200.88;5047022;28;20044;-73
2023/04/23 00:25:11;;;;;;;34.65;30.08;;;;;;;9.29;100.00;100297.97;5047227;28;20782;-72
2023/04/23 00:27:37;;;;;;;43.90;32.65;;;;;;;9.42;100.00;100311.97;5044034;28;20024;-73
2023/04/23 00:30:04;;;;;;;36.80;31.65;;;;;;;9.37;100.00;100311.09;5048009;28;20106;-72
2023/04/23 00:32:29;;;;;;;33.67;29.33;;;;;;;9.46;100.00;100320.72;5047502;28;20049;-73
2023/04/23 00:34:55;;;;;;;46.13;31.38;;;;;;;9.43;100.00;100304.97;5047361;28;20060;-73
2023/04/23 00:37:21;;;;;;;40.75;31.50;;;;;;;9.37;100.00;100294.50;5042358;28;20052;-72
2023/04/23 00:39:47;;;;;;;42.33;31.05;;;;;;;9.18;100.00;100324.97;5030336;28;20113;-73
2023/04/23 00:42:12;;;;;;;38.40;32.92;;;;;;;8.87;100.00;100233.22;5027440;28;20755;-72
2023/04/23 00:44:39;;;;;;;53.80;33.50;;;;;;;9.43;100.00;100315.44;5025735;28;20048;-73
2023/04/23 00:47:06;;;;;;;36.53;29.50;;;;;;;8.77;100.00;100197.44;5027190;28;20071;-75
2023/04/23 00:49:35;;;;;;;42.95;32.20;;;;;;;9.37;100.00;100299.75;5027081;28;20554;-73
2023/04/23 00:52:04;;;;;;;38.95;31.02;;;;;;;9.28;100.00;100308.44;5027228;28;20038;-73
2023/04/23 00:54:30;;;;;;;38.80;29.20;;;;;;;9.41;100.00;100332.91;5027210;28;20049;-73
2023/04/23 00:56:58;;;;;;;35.95;31.48;;;;;;;8.76;100.00;100216.63;5027767;28;20048;-73
2023/04/23 00:59:30;;;;;;;44.80;31.25;;;;;;;8.60;100.00;100202.63;5039556;28;20074;-74
2023/04/23 01:01:57;;;;;;;47.75;30.85;;;;;;;9.22;100.00;100324.09;5033568;28;20038;-74
2023/04/23 01:04:23;;;;;;;38.03;29.48;;;;;;;9.23;100.00;100320.63;5033778;28;20042;-73
2023/04/23 01:06:49;;;;;;;46.83;33.88;;;;;;;9.14;100.00;100297.91;5021433;28;20045;-73
2023/04/23 01:09:17;;;;;;;47.55;32.78;;;;;;;8.72;100.00;100248.88;5046478;28;20075;-74
2023/04/23 01:11:43;;;;;;;37.20;30.50;;;;;;;9.15;100.00;100309.25;5024886;28;20119;-74
2023/04/23 01:14:10;;;;;;;38.22;29.95;;;;;;;8.40;100.00;100172.00;5022680;28;20053;-74
2023/04/23 01:16:37;;;;;;;49.63;33.63;;;;;;;9.35;100.00;100312.81;5027371;28;20120;-74
2023/04/23 01:19:07;;;;;;;51.35;31.52;;;;;;;9.11;100.00;100313.59;5022601;28;20412;-75
2023/04/23 01:21:40;;;;;;;46.72;30.52;;;;;;;9.02;100.00;100282.16;5028143;28;20035;-75
2023/04/23 01:24:06;;;;;;;33.15;29.55;;;;;;;8.88;100.00;100259.41;5047811;28;20095;-74
2023/04/23 01:26:32;;;;;;;33.63;30.02;;;;;;;9.13;100.00;100295.25;5025921;28;20066;-74
2023/04/23 01:28:59;;;;;;;40.63;31.17;;;;;;;8.43;100.00;100179.00;5039639;28;20454;-74
2023/04/23 01:31:26;;;;;;;41.15;33.58;;;;;;;8.55;100.00;100176.44;5047008;28;20049;-74
2023/04/23 01:33:52;;;;;;;43.05;34.72;;;;;;;9.19;100.00;100282.22;5033378;28;20037;-72
2023/04/23 01:36:18;;;;;;;46.17;36.20;;;;;;;9.42;100.00;100311.09;5047364;28;20029;-72
2023/04/23 01:38:44;;;;;;;36.20;32.40;;;;;;;9.42;100.00;100309.34;5046299;28;20556;-73
2023/04/23 01:41:09;;;;;;;37.38;33.33;;;;;;;8.70;100.00;100180.84;5046713;28;20049;-73
2023/04/23 01:43:36;;;;;;;40.90;32.97;;;;;;;9.18;100.00;100272.63;5046685;28;20044;-73
2023/04/23 01:46:01;;;;;;;34.53;30.48;;;;;;;8.91;100.00;100242.84;5031301;28;20041;-75
2023/04/23 01:48:27;;;;;;;35.70;31.90;;;;;;;9.43;100.00;100315.44;5046453;28;20835;-73
2023/04/23 01:50:53;;;;;;;39.15;28.92;;;;;;;9.33;100.00;100300.59;5045434;28;20029;-72
2023/04/23 01:53:19;;;;;;;33.67;29.83;;;;;;;8.79;100.00;100221.88;5031077;28;20034;-74
2023/04/23 01:55:46;;;;;;;45.13;34.70;;;;;;;9.15;100.00;100304.00;5025681;28;20048;-73
2023/04/23 01:58:12;;;;;;;37.45;30.55;;;;;;;8.41;100.00;100206.88;5029579;28;20041;-75
2023/04/23 02:00:38;;;;;;;36.50;29.10;;;;;;;8.43;100.00;100210.38;5041106;28;20116;-73
2023/04/23 02:03:03;;;;;;;37.10;29.58;;;;;;;8.83;100.00;100284.69;5044899;28;20056;-74
2023/04/23 02:05:29;;;;;;;35.15;29.48;;;;;;;8.42;100.00;100214.72;5041400;28;20128;-73
2023/04/23 02:07:55;;;;;;;53.38;29.17;;;;;;;8.33;100.00;100208.53;5026218;28;20053;-74
2023/04/23 02:10:21;;;;;;;47.22;32.60;;;;;;;8.91;100.00;100316.13;5035034;28;20045;-73
2023/04/23 02:12:47;;;;;;;44.17;29.38;;;;;;;8.41;100.00;100218.19;5061706;28;20119;-75
2023/04/23 02:15:13;;;;;;;37.20;32.40;;;;;;;8.72;100.00;100296.81;5042407;28;20395;-73
2023/04/23 02:17:39;;;;;;;37.58;32.08;;;;;;;8.82;100.00;100309.09;5027655;28;20041;-74
2023/04/23 02:20:08;;;;;;;39.22;30.15;;;;;;;8.03;100.00;100183.97;5026558;28;20083;-73
2023/04/23 02:22:38;;;;;;;46.53;30.48;;;;;;;7.99;100.00;100190.03;5036252;28;20045;-73
2023/04/23 02:25:05;;;;;;;40.05;33.50;;;;;;;8.73;100.00;100306.41;5045036;28;20451;-73
2023/04/23 02:27:32;;;;;;;36.75;31.30;;;;;;;8.62;100.00;100284.56;5025543;28;20029;-74
2023/04/23 02:29:58;;;;;;;34.58;30.88;;;;;;;8.74;100.00;100292.47;5028043;28;20076;-73
2023/04/23 02:32:23;;;;;;;37.17;33.08;;;;;;;8.87;100.00;100293.41;5040509;28;20081;-73
2023/04/23 02:34:49;;;;;;;38.88;33.15;;;;;;;8.21;100.00;100197.13;5030324;28;20069;-74
2023/04/23 02:37:15;;;;;;;39.15;31.42;;;;;;;8.89;100.00;100307.38;5034732;28;20056;-74
2023/04/23 02:39:40;;;;;;;37.38;30.88;;;;;;;8.37;100.00;100242.53;5028314;28;20035;-73
2023/04/23 02:42:06;;;;;;;43.22;35.70;;;;;;;8.56;100.00;100280.16;5031231;28;20033;-75
2023/04/23 02:44:31;;;;;;;40.15;31.27;;;;;;;8.63;100.00;100292.41;5031001;28;20476;-72
2023/04/23 02:46:57;;;;;;;46.00;32.25;;;;;;;7.67;100.00;100146.25;5032181;28;20459;-75
2023/04/23 02:49:22;;;;;;;38.40;34.30;;;;;;;8.67;100.00;100298.53;5045216;28;20049;-73
2023/04/23 02:51:48;;;;;;;46.33;33.97;;;;;;;7.97;100.00;100187.41;5043646;28;20049;-73
2023/04/23 02:54:14;;;;;;;37.35;31.40;;;;;;;8.57;100.00;100292.38;5036520;28;20108;-73
2023/04/23 02:56:39;;;;;;;41.35;34.13;;;;;;;7.83;100.00;100149.84;5027015;28;20046;-73
2023/04/23 02:59:05;;;;;;;36.90;32.97;;;;;;;8.73;100.00;100300.31;5042689;28;20064;-73
2023/04/23 03:01:31;;;;;;;34.63;28.77;;;;;;;8.37;100.00;100283.50;5039765;28;20119;-74
2023/04/23 03:03:57;;;;;;;40.58;31.88;;;;;;;7.73;100.00;100162.00;5025295;28;20077;-73
2023/04/23 03:06:23;;;;;;;38.67;30.85;;;;;;;8.25;100.00;100307.81;5024903;28;20402;-73
2023/04/23 03:08:48;;;;;;;39.95;32.33;;;;;;;7.70;100.00;100201.16;5029476;28;20053;-73
2023/04/23 03:11:14;;;;;;;33.60;30.02;;;;;;;8.40;100.00;100296.63;5029005;28;20562;-73
2023/04/23 03:13:39;;;;;;;34.55;30.35;;;;;;;8.30;100.00;100269.50;5036689;28;20480;-74
2023/04/23 03:16:05;;;;;;;38.33;30.58;;;;;;;8.49;100.00;100306.28;5040671;28;20057;-73
2023/04/23 03:18:31;;;;;;;44.15;31.13;;;;;;;8.40;100.00;100299.22;5029649;28;20473;-74
2023/04/23 03:20:56;;;;;;;40.38;31.52;;;;;;;7.53;100.00;100190.53;5049969;28;20044;-73
2023/04/23 03:23:22;;;;;;;38.10;32.38;;;;;;;8.26;100.00;100291.25;5049184;28;20052;-74
2023/04/23 03:25:47;;;;;;;35.53;30.10;;;;;;;8.06;100.00;100337.28;5044760;28;20041;-73
2023/04/23 03:28:13;;;;;;;36.42;28.98;;;;;;;7.88;100.00;100255.25;5047035;28;20037;-74
2023/04/23 03:30:38;;;;;;;40.25;30.95;;;;;;;8.48;100.00;100323.72;5049359;28;20071;-74
2023/04/23 03:33:04;;;;;;;36.80;31.85;;;;;;;7.97;100.00;100272.75;5050089;28;20040;-74
2023/04/23 03:35:30;;;;;;;44.97;30.13;;;;;;;7.70;100.00;100208.06;5047189;28;20147;-74
2023/04/23 03:37:55;;;;;;;40.75;30.48;;;;;;;8.25;100.00;100306.06;5036735;28;20049;-74
2023/04/23 03:40:21;;;;;;;39.55;32.22;;;;;;;8.06;100.00;100264.13;5024658;28;20725;-74
2023/04/23 03:42:47;;;;;;;43.47;31.85;;;;;;;7.69;100.00;100196.75;5029135;28;20076;-74
2023/04/23 03:45:14;;;;;;;49.30;31.88;;;;;;;8.30;100.00;100302.63;5029524;28;20037;-74
2023/04/23 03:47:39;;;;;;;48.15;34.03;;;;;;;8.33;100.00;100318.31;5030510;28;20056;-73
2023/04/23 03:50:06;;;;;;;41.60;33.10;;;;;;;7.35;100.00;100140.78;5036014;28;20099;-74
2023/04/23 03:52:32;;;;;;;38.33;32.75;;;;;;;8.22;100.00;100298.22;5032559;28;20136;-74
2023/04/23 03:54:57;;;;;;;37.83;31.10;;;;;;;8.47;100.00;100323.69;5033264;28;20132;-74
2023/04/23 03:57:23;;;;;;;39.53;31.83;;;;;;;7.90;100.00;100231.75;5022230;28;20040;-74
2023/04/23 03:59:49;;;;;;;39.55;33.25;;;;;;;8.62;100.00;100336.88;5046197;28;20056;-74
2023/04/23 04:02:15;;;;;;;39.00;31.38;;;;;;;7.86;100.00;100219.53;5032481;28;20053;-74
2023/04/23 04:04:42;;;;;;;37.78;31.88;;;;;;;8.73;100.00;100352.63;5040479;28;20051;-73
2023/04/23 04:07:10;;;;;;;39.95;33.13;;;;;;;8.62;100.00;100355.19;5027846;28;20057;-74
2023/04/23 04:09:36;;;;;;;34.90;30.98;;;;;;;8.27;100.00;100315.69;5028348;28;20482;-73
2023/04/23 04:12:02;;;;;;;39.08;31.15;;;;;;;7.80;100.00;100217.75;5029190;28;20037;-73
2023/04/23 04:14:30;;;;;;;40.58;31.27;;;;;;;8.69;100.00;100361.34;5040773;28;20467;-73
2023/04/23 04:16:55;;;;;;;40.97;34.05;;;;;;;8.10;100.00;100227.56;5045185;28;20044;-73
2023/04/23 04:19:21;;;;;;;35.33;31.67;;;;;;;8.72;100.00;100335.19;5039597;28;20520;-75
2023/04/23 04:21:47;;;;;;;53.20;34.20;;;;;;;8.88;100.00;100357.97;5047957;28;21088;-75
2023/04/23 04:24:12;;;;;;;44.30;34.65;;;;;;;8.82;100.00;100350.94;5048931;28;20025;-73
2023/04/23 04:26:39;;;;;;;39.08;33.15;;;;;;;8.18;100.00;100235.44;5023383;28;20489;-75
2023/04/23 04:29:04;;;;;;;40.35;31.92;;;;;;;8.81;100.00;100336.13;5034656;28;20040;-73
2023/04/23 04:31:31;;;;;;;48.60;35.17;;;;;;;8.41;100.00;100246.09;5035778;28;20081;-76
2023/04/23 04:33:57;;;;;;;37.17;33.10;;;;;;;9.02;100.00;100348.44;5037642;28;20468;-73
2023/04/23 04:36:24;;;;;;;36.33;32.00;;;;;;;8.46;100.00;100239.16;5029194;28;20473;-76
2023/04/23 04:38:57;;;;;;;44.95;34.08;;;;;;;9.21;100.00;100356.41;5036100;28;20051;-74
2023/04/23 04:41:24;;;;;;;38.15;34.03;;;;;;;9.43;100.00;100383.53;5020071;28;20053;-74
2023/04/23 04:43:50;;;;;;;39.25;33.83;;;;;;;8.64;100.00;100260.19;5027725;28;20057;-75
2023/04/23 04:46:18;;;;;;;39.42;33.70;;;;;;;8.61;100.00;100244.44;5029632;28;20068;-73
2023/04/23 04:48:44;;;;;;;37.58;33.47;;;;;;;9.40;100.00;100394.00;5029448;28;20033;-74
2023/04/23 04:51:09;;;;;;;38.35;34.25;;;;;;;9.52;100.00;100409.78;5029834;28;20065;-73
2023/04/23 04:53:35;;;;;;;36.75;32.08;;;;;;;9.17;100.00;100337.16;5031031;28;20489;-75
2023/04/23 04:56:01;;;;;;;37.95;34.13;;;;;;;9.01;100.00;100303.94;5027190;28;20121;-74
2023/04/23 04:58:26;;;;;;;40.55;32.05;;;;;;;9.30;100.00;100331.13;5044811;28;20167;-73
2023/04/23 05:00:51;;;;;;;38.45;32.08;;;;;;;9.96;100.00;100437.00;5047637;28;20052;-74
2023/04/23 05:03:18;;;;;;;42.72;35.50;;;;;;;9.98;100.00;100409.06;5039645;28;20746;-74
2023/04/23 05:05:44;;;;;;;40.00;33.70;;;;;;;10.15;100.00;100450.16;5027984;28;20144;-73
2023/04/23 05:08:10;;;;;;;39.17;34.97;;;;;;;10.46;100.00;100476.47;5027280;28;20061;-73
2023/04/23 05:10:36;;;;;;;39.70;34.85;;;;;;;10.25;100.00;100421.34;5028611;28;20132;-73
2023/04/23 05:13:01;;;;;;;40.13;31.67;;;;;;;9.93;100.00;100361.88;5035597;28;20107;-74
2023/04/23 05:15:27;;;;;;;35.80;32.03;;;;;;;10.36;100.00;100406.53;5027300;28;20480;-75
2023/04/23 05:17:53;;;;;;;35.75;31.45;;;;;;;10.95;100.00;100517.63;5036685;28;20052;-73
2023/04/23 05:20:19;;;;;;;36.53;31.17;;;;;;;10.46;100.00;100421.38;5041085;28;20069;-73
2023/04/23 05:22:45;;;;;;;47.25;32.58;;;;;;;11.67;100.00;100538.56;5046814;28;20049;-73
2023/04/23 05:25:11;;;;;;;36.33;32.53;;;;;;;12.45;100.00;100517.25;5046905;28;20398;-73
2023/04/23 05:27:37;;;;;;;33.92;28.92;;;;;;;12.65;100.00;100492.53;5031643;28;20029;-74
2023/04/23 05:30:05;;;;;;;40.10;28.73;;;;;;;14.08;100.00;100625.69;5033248;28;20689;-74
2023/04/23 05:32:31;;;;;;;35.38;27.05;;;;;;;14.23;100.00;100537.53;5031895;28;20069;-74
2023/04/23 05:34:57;;;;;;;37.75;30.15;;;;;;;15.11;100.00;100701.03;5032664;28;20083;-74
2023/04/23 05:37:22;;;;;;;40.58;32.70;;;;;;;14.77;100.00;100649.53;5032336;28;20056;-74
2023/04/23 05:39:47;;;;;;;33.25;29.73;;;;;;;15.40;100.00;100601.00;5028577;28;20128;-74
2023/04/23 05:42:13;;;;;;;44.83;30.67;;;;;;;16.13;100.00;100634.09;5041479;28;20033;-75
2023/04/23 05:44:40;;;;;;;31.33;28.20;;;;;;;16.25;100.00;100624.16;5028159;28;20521;-75
2023/04/23 05:47:07;;;;;;;33.25;28.30;;;;;;;16.66;100.00;100656.84;5037715;28;20071;-74
2023/04/23 05:49:33;;;;;;;31.75;24.75;;;;;;;16.66;100.00;100661.28;5032111;28;20056;-74
2023/04/23 05:51:59;;;;;;;30.45;25.08;;;;;;;17.32;100.00;100762.41;5024476;28;20057;-73
2023/04/23 05:54:25;;;;;;;28.48;25.35;;;;;;;17.38;100.00;100698.63;5022298;28;20030;-74
2023/04/23 05:56:50;;;;;;;30.38;23.52;;;;;;;17.39;100.00;100665.88;5056850;28;20053;-71
2023/04/23 05:59:16;;;;;;;29.58;24.35;;;;;;;17.57;100.00;100656.59;5039106;28;20048;-72
2023/04/23 06:01:41;;;;;;;30.17;24.05;;;;;;;17.63;100.00;100664.38;5035438;28;20197;-72
2023/04/23 06:04:07;;;;;;;27.92;23.95;;;;;;;18.29;100.00;100747.72;5041466;28;20076;-72
2023/04/23 06:06:32;;;;;;;26.33;22.23;;;;;;;18.49;100.00;100757.78;5035193;28;20045;-72
2023/04/23 06:08:58;;;;;;;26.98;21.67;;;;;;;18.44;100.00;100736.66;5045903;28;20060;-72
2023/04/23 06:11:24;;;;;;;32.67;20.77;;;;;;;18.55;100.00;100720.44;5028197;28;20065;-73
2023/04/23 06:13:49;;;;;;;25.73;21.38;;;;;;;18.47;100.00;100759.59;5028158;28;20242;-72
2023/04/23 06:16:15;;;;;;;23.05;20.52;;;;;;;18.05;100.00;100670.44;5035032;28;20052;-72
2023/04/23 06:18:40;;;;;;;25.02;17.08;;;;;;;18.40;100.00;100734.97;5033225;28;20041;-73
2023/04/23 06:21:07;;;;;;;20.15;14.68;;;;;;;18.46;100.00;100769.38;5050118;28;20043;-72
2023/04/23 06:23:34;;;;;;;29.55;19.60;;;;;;;17.44;100.00;100662.22;5031825;28;20107;-71
2023/04/23 06:25:59;;;;;;;28.27;18.83;;;;;;;17.61;100.00;100656.47;5024547;28;20563;-73
2023/04/23 06:28:25;;;;;;;22.52;17.38;;;;;;;18.34;100.00;100761.75;5028437;28;20053;-71
2023/04/23 06:30:51;;;;;;;23.63;18.17;;;;;;;18.45;100.00;100737.50;5033458;28;20064;-73
2023/04/23 06:33:17;;;;;;;18.58;15.93;;;;;;;17.91;100.00;100672.53;5035948;28;20108;-71
2023/04/23 06:35:42;;;;;;;21.42;12.98;;;;;;;17.95;100.00;100737.94;5040498;28;20140;-71
2023/04/23 06:38:08;;;;;;;13.63;11.98;;;;;;;17.97;100.00;100760.03;5029987;28;20079;-73
2023/04/23 06:40:33;;;;;;;14.52;12.20;;;;;;;17.51;100.00;100679.72;5044433;28;20057;-73
2023/04/23 06:42:59;;;;;;;25.20;13.75;;;;;;;17.16;100.00;100756.56;5029548;28;20128;-72
2023/04/23 06:45:24;;;;;;;22.23;13.70;;;;;;;16.88;100.00;100640.53;5034358;28;20043;-72
2023/04/23 06:47:50;;;;;;;16.50;11.48;;;;;;;17.59;100.00;100753.84;5029726;28;20058;-74
2023/04/23 06:50:15;;;;;;;15.75;9.43;;;;;;;16.80;100.00;100656.59;5031902;28;20045;-71
2023/04/23 06:52:41;;;;;;;16.20;10.70;;;;;;;17.36;100.00;100764.97;5037880;28;20087;-71
2023/04/23 06:55:08;;;;;;;16.63;13.13;;;;;;;17.13;93.07;100786.69;5034036;28;20064;-71
2023/04/23 06:57:33;;;;;;;24.38;13.48;;;;;;;16.98;95.38;100763.16;5028516;28;20048;-73
2023/04/23 06:59:59;;;;;;;22.35;12.63;;;;;;;17.03;100.00;100762.13;5035376;28;20033;-72
2023/04/23 07:02:25;;;;;;;25.98;13.23;;;;;;;16.98;100.00;100771.09;5034230;28;20098;-72
2023/04/23 07:04:50;;;;;;;20.95;12.63;;;;;;;16.33;100.00;100652.25;5041455;28;20404;-73
2023/04/23 07:07:17;;;;;;;17.63;12.90;;;;;;;16.34;100.00;100758.19;5030254;28;20759;-72
2023/04/23 07:09:43;;;;;;;21.15;12.25;;;;;;;16.59;100.00;100761.22;5029355;28;20039;-72
2023/04/23 07:12:09;;;;;;;19.95;13.65;;;;;;;15.57;100.00;100634.22;5028569;28;20037;-73
2023/04/23 07:14:34;;;;;;;17.00;12.93;;;;;;;15.76;100.00;100640.97;5043096;28;20106;-73
2023/04/23 07:17:00;;;;;;;17.65;13.77;;;;;;;16.28;100.00;100739.75;5044742;28;20519;-71
2023/04/23 07:19:26;;;;;;;23.27;14.20;;;;;;;16.33;100.00;100742.31;5043020;28;20040;-73
2023/04/23 07:21:52;;;;;;;16.58;10.02;;;;;;;16.04;100.00;100682.81;5045104;28;20048;-73
2023/04/23 07:24:17;;;;;;;18.40;7.72;;;;;;;16.21;81.57;100778.69;5022053;28;20034;-71
2023/04/23 07:26:44;;;;;;;14.00;7.75;;;;;;;15.99;85.88;100671.41;5036508;28;20071;-74
2023/04/23 07:29:10;;;;;;;16.05;7.25;;;;;;;15.71;82.14;100637.53;5034926;28;20045;-73
2023/04/23 07:31:36;;;;;;;11.68;7.55;;;;;;;16.59;81.46;100770.94;5034720;28;20420;-72
2023/04/23 07:34:01;;;;;;;11.88;6.97;;;;;;;16.31;77.23;100771.44;5034203;28;20045;-71
2023/04/23 07:36:27;;;;;;;15.45;7.82;;;;;;;16.15;85.45;100695.84;5028795;28;20500;-70
2023/04/23 07:38:53;;;;;;;8.93;6.22;;;;;;;16.42;77.94;100769.50;5027185;28;20029;-71
2023/04/23 07:41:19;;;;;;;10.73;6.90;;;;;;;15.78;74.73;100668.28;5035426;28;20045;-73
2023/04/23 07:43:45;;;;;;;12.38;6.63;;;;;;;16.51;81.69;100778.19;5035653;28;20776;-72
2023/04/23 07:46:10;;;;;;;12.45;7.47;;;;;;;16.24;74.02;100757.44;5033699;28;20047;-72
2023/04/23 07:48:35;;;;;;;12.07;6.55;;;;;;;15.69;74.13;100643.72;5029003;28;20042;-72
2023/04/23 07:51:01;;;;;;;10.70;6.40;;;;;;;16.32;72.01;100778.50;5033501;28;20056;-72
2023/04/23 07:53:27;;;;;;;17.45;7.25;;;;;;;15.68;69.13;100650.75;5032384;28;20563;-71
2023/04/23 07:55:56;;;;;;;11.93;6.50;;;;;;;16.59;72.47;100770.94;5030908;28;20097;-73
2023/04/23 07:58:24;;;;;;;12.88;7.28;;;;;;;16.29;73.16;100733.53;5036291;28;20117;-73
2023/04/23 08:00:50;;;;;;;21.00;7.90;;;;;;;16.15;68.90;100724.97;5042812;28;20123;-72
2023/04/23 08:03:15;;;;;;;15.80;8.13;;;;;;;15.55;73.62;100659.81;5038350;28;20132;-71
2023/04/23 08:05:41;;;;;;;19.77;7.38;;;;;;;16.38;80.49;100761.63;5041378;28;20036;-72
2023/04/23 08:08:07;;;;;;;10.50;7.35;;;;;;;15.95;76.87;100667.97;5028541;28;20484;-71
2023/04/23 08:10:34;;;;;;;14.30;7.43;;;;;;;16.41;77.35;100786.31;5027560;28;20056;-72
2023/04/23 08:12:59;;;;;;;12.27;6.47;;;;;;;15.91;73.19;100646.88;5029112;28;20048;-71
2023/04/23 08:15:25;;;;;;;8.27;6.90;;;;;;;16.48;75.22;100759.69;5034437;28;20025;-73
2023/04/23 08:17:51;;;;;;;13.35;7.57;;;;;;;16.06;70.58;100733.06;5038007;28;20132;-73
2023/04/23 08:20:16;;;;;;;9.18;6.43;;;;;;;15.51;71.50;100682.78;5043869;28;20396;-72
2023/04/23 08:22:42;;;;;;;12.63;6.65;;;;;;;15.75;74.06;100647.13;5047195;28;20044;-73
2023/04/23 08:25:08;;;;;;;9.25;5.85;;;;;;;15.87;66.99;100754.56;5041740;28;20465;-70
2023/04/23 08:27:34;;;;;;;12.07;5.38;;;;;;;16.01;69.62;100688.16;5024135;28;20443;-71
2023/04/23 08:29:59;;;;;;;9.45;5.63;;;;;;;15.77;72.89;100637.41;5034349;28;20403;-72
2023/04/23 08:32:25;;;;;;;10.32;6.85;;;;;;;16.09;69.51;100637.75;5039997;28;20057;-72
2023/04/23 08:34:50;;;;;;;15.05;7.07;;;;;;;16.13;68.23;100647.34;5027216;28;20386;-73
2023/04/23 08:37:16;;;;;;;19.20;6.53;;;;;;;16.46;70.87;100720.84;5027206;28;20505;-72
2023/04/23 08:39:41;;;;;;;15.90;6.40;;;;;;;16.38;71.42;100751.03;5027268;28;20137;-72
2023/04/23 08:42:31;;;;;;;14.25;6.47;;;;;;;16.20;67.46;100688.69;5027357;28;20044;-72
2023/04/23 08:44:57;;;;;;;8.70;5.65;;;;;;;16.30;71.55;100641.75;5032396;28;20048;-72
2023/04/23 08:47:24;;;;;;;13.80;5.35;;;;;;;16.34;69.77;100665.47;5024905;28;20371;-72
2023/04/23 08:49:53;;;;;;;16.90;5.25;;;;;;;16.74;65.05;100720.31;5025974;28;20049;-72
2023/04/23 08:52:23;;;;;;;10.30;5.90;;;;;;;16.83;66.89;100769.63;5029230;28;20440;-71
2023/04/23 08:54:52;;;;;;;11.48;6.85;;;;;;;16.62;64.34;100726.75;5030159;28;20136;-73
2023/04/23 08:57:18;;;;;;;13.82;5.20;;;;;;;16.79;69.09;100742.31;5020645;28;20044;-73
2023/04/23 08:59:45;;;;;;;18.67;7.10;;;;;;;17.04;69.11;100741.78;5033073;28;20118;-73
2023/04/23 09:02:13;;;;;;;13.18;6.03;;;;;;;16.81;61.43;100755.53;5033206;28;20149;-71
2023/04/23 09:04:39;;;;;;;9.52;5.93;;;;;;;16.12;63.12;100641.19;5031781;28;20057;-73
2023/04/23 09:07:09;;;;;;;10.90;6.75;;;;;;;16.09;62.10;100547.72;5026946;28;20041;-73
2023/04/23 09:09:36;;;;;;;10.73;6.25;;;;;;;17.39;66.86;100737.50;5021834;28;20032;-74
2023/04/23 09:12:03;;;;;;;11.30;7.15;;;;;;;17.03;63.32;100753.31;5021295;28;20061;-74
2023/04/23 09:14:29;;;;;;;15.80;7.78;;;;;;;17.74;62.71;100734.00;5038686;28;20045;-75
2023/04/23 09:16:54;;;;;;;10.25;6.80;;;;;;;17.84;58.45;100729.38;5031914;28;20456;-71
2023/04/23 09:19:20;;;;;;;18.27;6.85;;;;;;;18.21;61.17;100728.44;5026088;28;20077;-73
2023/04/23 09:21:45;;;;;;;19.20;6.55;;;;;;;18.21;71.79;100745.22;5026291;28;20048;-72
2023/04/23 09:24:12;;;;;;;13.30;6.15;;;;;;;17.93;65.39;100723.84;5027429;28;20063;-72
2023/04/23 09:26:48;;;;;;;16.10;6.60;;;;;;;17.49;81.96;100675.38;5021373;28;20041;-73
2023/04/23 09:29:18;;;;;;;10.60;7.60;;;;;;;17.25;75.48;100643.19;5032550;28;20059;-72
2023/04/23 09:31:46;;;;;;;9.30;6.25;;;;;;;16.72;71.50;100613.47;5024089;28;20124;-72
2023/04/23 09:34:15;;;;;;;8.60;5.60;;;;;;;17.85;61.61;100712.53;5031342;28;20259;-73
2023/04/23 09:36:41;;;;;;;11.90;6.85;;;;;;;18.52;58.43;100723.19;5022513;28;20044;-73
2023/04/23 09:39:14;;;;;;;14.90;6.57;;;;;;;17.70;62.19;100610.28;5036168;28;20090;-72
2023/04/23 09:41:40;;;;;;;12.88;7.38;;;;;;;19.35;61.30;100731.38;5038968;28;20063;-75
2023/04/23 09:44:07;;;;;;;12.00;7.63;;;;;;;19.61;64.23;100715.44;5032721;28;20123;-71
2023/04/23 09:46:39;;;;;;;22.85;8.30;;;;;;;19.90;73.41;100689.69;5034371;28;20533;-71
2023/04/23 09:49:09;;;;;;;22.10;14.65;;;;;;;20.62;64.43;100710.25;5025266;28;20046;-72
2023/04/23 09:51:39;;;;;;;9.05;6.72;;;;;;;20.83;58.82;100716.59;5028274;28;20037;-72
2023/04/23 09:54:25;;;;;;;17.33;6.90;;;;;;;20.68;62.18;100707.38;5026233;28;20110;-75
2023/04/23 09:56:55;;;;;;;9.23;5.97;;;;;;;19.12;61.77;100572.50;5017241;28;20135;-75
2023/04/23 09:59:29;;;;;;;20.27;7.03;;;;;;;20.42;63.00;100692.31;5031728;28;20064;-73
2023/04/23 10:02:13;;;;;;;17.48;8.23;;;;;;;20.51;55.05;100701.75;4991056;28;20047;-78
2023/04/23 10:04:40;;;;;;;12.15;7.18;;;;;;;19.50;53.02;100637.75;5024975;28;20095;-77
2023/04/23 10:07:07;;;;;;;10.52;8.27;;;;;;;20.21;53.09;100596.22;5025554;28;20075;-72
2023/04/23 10:09:34;;;;;;;23.55;8.70;;;;;;;19.51;57.35;100658.13;5025010;28;20493;-72
2023/04/23 10:12:01;;;;;;;16.30;7.68;;;;;;;20.68;59.21;100691.38;5023741;28;20048;-71
2023/04/23 10:14:27;;;;;;;15.35;7.90;;;;;;;21.29;55.21;100685.47;5025697;28;20042;-72
2023/04/23 10:16:59;;;;;;;11.63;6.45;;;;;;;21.39;53.79;100689.50;5032245;28;20055;-70
2023/04/23 10:19:28;;;;;;;18.83;6.83;;;;;;;20.57;51.30;100680.25;5029656;28;20113;-72
2023/04/23 10:21:56;;;;;;;14.05;7.00;;;;;;;22.11;56.42;100672.28;5030007;28;20055;-73
2023/04/23 10:24:29;;;;;;;13.10;6.38;;;;;;;21.62;50.77;100669.03;5046822;28;20028;-72
2023/04/23 10:27:03;;;;;;;10.63;7.40;;;;;;;21.42;50.94;100664.50;5033773;28;20459;-71
2023/04/23 10:29:33;;;;;;;8.57;5.00;;;;;;;22.46;50.54;100665.38;5030323;28;20703;-72
2023/04/23 10:32:00;;;;;;;14.85;6.55;;;;;;;20.99;50.87;100562.16;5034205;28;20053;-72
2023/04/23 10:34:27;;;;;;;8.27;5.88;;;;;;;22.13;50.86;100633.00;5039510;28;20044;-72
2023/04/23 10:36:54;;;;;;;9.50;6.38;;;;;;;21.72;48.22;100600.91;5033197;28;20053;-71
2023/04/23 10:39:21;;;;;;;10.88;5.85;;;;;;;20.90;47.46;100650.56;5034967;28;20048;-72
2023/04/23 10:41:47;;;;;;;14.25;6.20;;;;;;;20.63;48.35;100558.22;5021678;28;20475;-71
2023/04/23 10:44:15;;;;;;;9.43;6.75;;;;;;;21.67;55.05;100522.81;5023843;28;20046;-72
2023/04/23 10:46:55;;;;;;;13.45;7.05;;;;;;;22.52;48.83;100632.13;5025605;28;20046;-71
2023/04/23 10:49:22;;;;;;;13.40;5.60;;;;;;;20.79;47.61;100522.94;5016213;28;20079;-71
2023/04/23 10:51:48;;;;;;;20.23;7.00;;;;;;;21.61;48.09;100605.84;5028575;28;20042;-71
2023/04/23 10:54:14;;;;;;;8.07;5.07;;;;;;;22.08;47.42;100610.94;5026246;28;20040;-71
2023/04/23 10:56:41;;;;;;;10.38;4.68;;;;;;;21.64;45.91;100629.78;5019305;28;20054;-71
2023/04/23 10:59:07;;;;;;;8.45;5.70;;;;;;;21.80;45.11;100516.00;5033356;28;20049;-71
2023/04/23 11:01:33;;;;;;;15.55;5.78;;;;;;;21.39;48.87;100620.06;5032727;28;20238;-71
2023/04/23 11:04:19;;;;;;;8.43;5.38;;;;;;;20.70;51.81;100585.53;5041595;28;20127;-71
2023/04/23 11:06:48;;;;;;;9.60;6.63;;;;;;;21.18;50.66;100615.63;5044258;28;20057;-71
2023/04/23 11:09:45;;;;;;;15.15;6.60;;;;;;;21.40;49.46;100615.63;5022389;28;20052;-71